Time;durP1;ratioP1;P1;durP2;ratioP2;P2;SDS_P1;SDS_P2;PMS_P1;PMS_P2;Temp;Humidity;BMP_temperature;BMP_pressure;BME280_temperature;BME280_humidity;BME280_pressure;Samples;Min_cycle;Max_cycle;Signal;HPM_P1;HPM_P2
2023/06/05 00:01:02;;;;;;;9.55;2.70;;;10.40;99.90;;;;;;5007321;28;20051;-75
2023/06/05 00:03:29;;;;;;;4.78;2.67;;;10.40;99.90;;;;;;5012383;28;20037;-75
2023/06/05 00:05:55;;;;;;;8.23;3.10;;;10.30;99.90;;;;;;5027883;28;20036;-75
2023/06/05 00:08:20;;;;;;;9.30;2.17;;;10.30;99.90;;;;;;5028673;28;20086;-75
2023/06/05 00:10:46;;;;;;;6.28;2.50;;;10.20;99.90;;;;;;5037897;28;20036;-75
2023/06/05 00:13:12;;;;;;;7.30;2.35;;;10.20;99.90;;;;;;5034026;28;20095;-76
2023/06/05 00:15:37;;;;;;;11.57;2.63;;;10.20;99.90;;;;;;5007989;28;20075;-75
2023/06/05 00:18:03;;;;;;;7.68;2.53;;;10.20;99.90;;;;;;5030998;28;20040;-77
2023/06/05 00:20:29;;;;;;;7.50;2.70;;;10.10;99.90;;;;;;5008135;28;20892;-76
2023/06/05 00:22:55;;;;;;;9.85;2.58;;;10.10;99.90;;;;;;5015806;28;20076;-75
2023/06/05 00:25:21;;;;;;;9.52;2.83;;;10.00;99.90;;;;;;5037363;28;20052;-76
2023/06/05 00:27:46;;;;;;;5.45;2.70;;;10.00;99.90;;;;;;5019448;28;20109;-76
2023/06/05 00:30:13;;;;;;;4.72;2.42;;;10.00;99.90;;;;;;5005697;28;20383;-75
2023/06/05 00:32:39;;;;;;;6.03;3.00;;;9.90;99.90;;;;;;5025844;28;20037;-75
2023/06/05 00:35:06;;;;;;;7.75;2.47;;;9.90;99.90;;;;;;5039487;28;20048;-75
2023/06/05 00:37:33;;;;;;;6.65;2.50;;;9.90;99.90;;;;;;5009591;28;20076;-75
2023/06/05 00:39:59;;;;;;;7.70;2.80;;;9.90;99.90;;;;;;5022283;28;20068;-75
2023/06/05 00:42:26;;;;;;;6.22;2.92;;;9.80;99.90;;;;;;5013836;28;20131;-75
2023/06/05 00:44:52;;;;;;;11.82;2.75;;;9.80;99.90;;;;;;5018668;28;20048;-76
2023/06/05 00:47:18;;;;;;;3.85;2.30;;;9.70;99.90;;;;;;5009198;28;20052;-75
2023/06/05 00:49:44;;;;;;;8.38;2.90;;;9.70;99.90;;;;;;5007646;28;20025;-75
2023/06/05 00:52:10;;;;;;;5.35;2.72;;;9.60;99.90;;;;;;5011933;28;20103;-75
2023/06/05 00:54:36;;;;;;;7.15;2.75;;;9.60;99.90;;;;;;5020673;28;20033;-75
2023/06/05 00:57:02;;;;;;;6.88;2.67;;;9.50;99.90;;;;;;5022386;28;20037;-76
2023/06/05 00:59:29;;;;;;;8.63;2.90;;;9.60;99.90;;;;;;5021187;28;20076;-76
2023/06/05 01:01:55;;;;;;;6.85;3.10;;;9.50;99.90;;;;;;5011022;28;20041;-76
2023/06/05 01:04:23;;;;;;;5.90;3.08;;;9.50;99.90;;;;;;5034524;28;20017;-75
2023/06/05 01:06:51;;;;;;;6.28;2.80;;;9.50;99.90;;;;;;5010417;28;20037;-75
2023/06/05 01:09:18;;;;;;;6.50;3.08;;;9.40;99.90;;;;;;5036137;28;20356;-76
2023/06/05 01:11:52;;;;;;;9.00;3.22;;;9.40;99.90;;;;;;5007849;28;20025;-75
2023/06/05 01:14:22;;;;;;;6.85;3.03;;;9.40;99.90;;;;;;5003918;28;20132;-75
2023/06/05 01:16:53;;;;;;;7.50;3.70;;;9.40;99.90;;;;;;5020391;28;20480;-75
2023/06/05 01:19:20;;;;;;;8.68;3.70;;;9.40;99.90;;;;;;5002228;28;20547;-75
2023/06/05 01:21:47;;;;;;;4.50;3.08;;;9.40;99.90;;;;;;5022566;28;20037;-75
2023/06/05 01:24:13;;;;;;;7.07;3.28;;;9.30;99.90;;;;;;5026049;28;20465;-75
2023/06/05 01:27:03;;;;;;;7.10;3.25;;;9.30;99.90;;;;;;5011644;28;20021;-76
2023/06/05 01:29:52;;;;;;;9.00;3.67;;;9.30;99.90;;;;;;4989235;28;20037;-75
2023/06/05 01:32:40;;;;;;;5.57;2.92;;;9.30;99.90;;;;;;5008534;28;20087;-75
2023/06/05 01:35:08;;;;;;;4.68;2.90;;;9.20;99.90;;;;;;5013883;28;20056;-75
2023/06/05 01:37:40;;;;;;;7.38;3.28;;;9.20;99.90;;;;;;5015653;28;20056;-75
2023/06/05 01:40:14;;;;;;;8.65;3.30;;;9.20;99.90;;;;;;5011006;28;20389;-75
2023/06/05 01:42:41;;;;;;;6.13;3.05;;;9.20;99.90;;;;;;5027079;28;20132;-75
2023/06/05 01:45:09;;;;;;;5.75;3.25;;;9.10;99.90;;;;;;5023425;28;20087;-75
2023/06/05 01:47:39;;;;;;;7.28;3.17;;;9.10;99.90;;;;;;5010057;28;20064;-75
2023/06/05 01:50:06;;;;;;;13.45;3.33;;;9.10;99.90;;;;;;5017033;28;20037;-75
2023/06/05 01:52:33;;;;;;;5.13;2.90;;;9.00;99.90;;;;;;5024782;28;20024;-76
2023/06/05 01:54:59;;;;;;;6.15;3.20;;;9.00;99.90;;;;;;5025566;28;20116;-76
2023/06/05 01:57:27;;;;;;;7.20;2.95;;;9.00;99.90;;;;;;5033095;28;20021;-75
2023/06/05 01:59:54;;;;;;;7.18;2.92;;;8.90;99.90;;;;;;5002869;28;20026;-75
2023/06/05 02:02:21;;;;;;;5.60;2.80;;;9.00;99.90;;;;;;5009328;28;20044;-75
2023/06/05 02:04:47;;;;;;;8.85;3.35;;;8.90;99.90;;;;;;5024802;28;20025;-75
2023/06/05 02:07:14;;;;;;;6.53;2.97;;;8.90;99.90;;;;;;5005195;28;20412;-75
2023/06/05 02:09:41;;;;;;;8.15;3.20;;;8.90;99.90;;;;;;5026545;28;20389;-75
2023/06/05 02:12:07;;;;;;;4.47;3.35;;;8.90;99.90;;;;;;5027088;28;20029;-75
2023/06/05 02:14:35;;;;;;;8.07;3.25;;;8.90;99.90;;;;;;5030585;28;20048;-75
2023/06/05 02:17:07;;;;;;;10.88;3.53;;;8.90;99.90;;;;;;5031947;28;20059;-75
2023/06/05 02:19:33;;;;;;;8.02;4.00;;;8.80;99.90;;;;;;5014304;28;20045;-75
2023/06/05 02:21:59;;;;;;;5.63;4.10;;;8.90;99.90;;;;;;5002223;28;20041;-75
2023/06/05 02:24:26;;;;;;;8.45;4.00;;;8.90;99.90;;;;;;5020955;28;20059;-75
2023/06/05 02:26:52;;;;;;;9.02;3.55;;;8.90;99.90;;;;;;5025673;28;20033;-76
2023/06/05 02:29:17;;;;;;;7.00;3.88;;;8.90;99.90;;;;;;5010953;28;20021;-75
2023/06/05 02:31:43;;;;;;;7.70;2.80;;;8.90;99.90;;;;;;5038632;28;20037;-76
2023/06/05 02:34:09;;;;;;;6.75;3.47;;;8.90;99.90;;;;;;5013808;28;20382;-76
2023/06/05 02:36:35;;;;;;;8.27;3.80;;;8.80;99.90;;;;;;5006989;28;20045;-76
2023/06/05 02:39:04;;;;;;;8.57;3.65;;;8.90;99.90;;;;;;5023450;28;20036;-75
2023/06/05 02:41:30;;;;;;;7.78;3.67;;;8.80;99.90;;;;;;5019564;28;20540;-76
2023/06/05 02:43:56;;;;;;;6.15;3.53;;;8.80;99.90;;;;;;5031557;28;20048;-74
2023/06/05 02:46:24;;;;;;;5.47;2.92;;;8.80;99.90;;;;;;5015129;28;20060;-75
2023/06/05 02:48:53;;;;;;;6.68;3.92;;;8.70;99.90;;;;;;5012726;28;20087;-74
2023/06/05 02:51:18;;;;;;;6.75;3.45;;;8.70;99.90;;;;;;5026641;28;20105;-76
2023/06/05 02:53:44;;;;;;;7.35;3.88;;;8.70;99.90;;;;;;5008802;28;20026;-76
2023/06/05 02:56:10;;;;;;;7.13;3.92;;;8.80;99.90;;;;;;5033113;28;20032;-75
2023/06/05 02:58:35;;;;;;;4.40;3.60;;;8.70;99.90;;;;;;5029369;28;20037;-75
2023/06/05 03:01:06;;;;;;;6.85;3.85;;;8.80;99.90;;;;;;5013180;28;20103;-74
2023/06/05 03:03:32;;;;;;;6.50;3.53;;;8.80;99.90;;;;;;5001365;28;20033;-75
2023/06/05 03:06:04;;;;;;;4.22;3.10;;;8.70;99.90;;;;;;5027743;28;20025;-75
2023/06/05 03:08:38;;;;;;;7.43;3.97;;;8.70;99.90;;;;;;5031810;28;20032;-75
2023/06/05 03:11:05;;;;;;;7.82;4.20;;;8.70;99.90;;;;;;5011550;28;20503;-76
2023/06/05 03:13:32;;;;;;;10.25;4.38;;;8.70;99.90;;;;;;5027861;28;20039;-76
2023/06/05 03:16:00;;;;;;;7.80;4.30;;;8.60;99.90;;;;;;5004652;28;20124;-76
2023/06/05 03:18:27;;;;;;;7.28;3.95;;;8.70;99.90;;;;;;5007876;28;20032;-76
2023/06/05 03:20:56;;;;;;;8.52;4.22;;;8.70;99.90;;;;;;5022537;28;20049;-76
2023/06/05 03:23:29;;;;;;;9.57;4.13;;;8.80;99.90;;;;;;5022904;28;20036;-75
2023/06/05 03:25:56;;;;;;;7.45;4.10;;;8.80;99.90;;;;;;5027655;28;20043;-75
2023/06/05 03:28:23;;;;;;;6.40;3.97;;;8.80;99.90;;;;;;5008074;28;20425;-75
2023/06/05 03:30:49;;;;;;;6.10;3.75;;;8.80;99.90;;;;;;5018048;28;20360;-75
2023/06/05 03:33:17;;;;;;;6.57;3.88;;;8.80;99.90;;;;;;5013803;28;20041;-76
2023/06/05 03:35:46;;;;;;;6.88;4.30;;;8.70;99.90;;;;;;5025519;28;20552;-75
2023/06/05 03:38:12;;;;;;;8.90;4.28;;;8.70;99.90;;;;;;5036130;28;20025;-75
2023/06/05 03:40:40;;;;;;;9.80;4.22;;;8.80;99.90;;;;;;5009352;28;20044;-75
2023/06/05 03:43:06;;;;;;;6.93;4.22;;;8.80;99.90;;;;;;5032894;28;20146;-76
2023/06/05 03:45:34;;;;;;;5.70;4.00;;;8.80;99.90;;;;;;5017828;28;20048;-76
2023/06/05 03:48:00;;;;;;;9.02;4.63;;;8.80;99.90;;;;;;5029635;28;20040;-75
2023/06/05 03:50:28;;;;;;;10.55;4.85;;;8.80;99.90;;;;;;5014912;28;20029;-75
2023/06/05 03:53:02;;;;;;;7.93;4.03;;;8.90;99.90;;;;;;5018582;28;20700;-75
2023/06/05 03:55:40;;;;;;;8.27;4.35;;;8.80;99.90;;;;;;5028924;28;20495;-75
2023/06/05 03:58:16;;;;;;;7.38;4.22;;;8.90;99.90;;;;;;5031814;28;20874;-74
2023/06/05 04:00:48;;;;;;;6.43;3.72;;;8.90;99.90;;;;;;5016074;28;20033;-75
2023/06/05 04:03:15;;;;;;;8.00;4.35;;;8.90;99.90;;;;;;5018995;28;20049;-76
2023/06/05 04:05:41;;;;;;;9.52;4.18;;;9.00;99.90;;;;;;5030251;28;20081;-75
2023/06/05 04:08:09;;;;;;;6.30;4.25;;;9.00;99.90;;;;;;5022024;28;20396;-75
2023/06/05 04:10:35;;;;;;;9.88;4.03;;;9.00;99.90;;;;;;5030675;28;20033;-75
2023/06/05 04:13:02;;;;;;;7.40;3.75;;;9.00;99.90;;;;;;5036582;28;20030;-76
2023/06/05 04:15:28;;;;;;;5.90;3.85;;;9.10;99.90;;;;;;5033186;28;20578;-75
2023/06/05 04:17:55;;;;;;;8.00;4.53;;;9.20;99.90;;;;;;5033994;28;20025;-75
2023/06/05 04:20:21;;;;;;;7.18;4.32;;;9.20;99.90;;;;;;5007644;28;20025;-76
2023/06/05 04:22:47;;;;;;;7.03;4.15;;;9.30;99.90;;;;;;5014372;28;20037;-76
2023/06/05 04:25:14;;;;;;;9.15;3.72;;;9.40;99.90;;;;;;5008180;28;20797;-75
2023/06/05 04:27:41;;;;;;;7.43;3.90;;;9.40;99.90;;;;;;5031266;28;20504;-75
2023/06/05 04:30:09;;;;;;;7.40;4.53;;;9.50;99.90;;;;;;5014396;28;20025;-76
2023/06/05 04:32:38;;;;;;;9.20;4.50;;;9.60;99.90;;;;;;5033759;28;20093;-76
2023/06/05 04:35:05;;;;;;;5.82;3.80;;;9.70;99.90;;;;;;5035496;28;20022;-75
2023/06/05 04:37:31;;;;;;;10.80;4.35;;;9.70;99.90;;;;;;5029200;28;20039;-75
2023/06/05 04:39:58;;;;;;;7.63;4.15;;;9.80;99.90;;;;;;5018268;28;20048;-75
2023/06/05 04:42:24;;;;;;;7.45;4.40;;;9.80;99.90;;;;;;5028677;28;20033;-75
2023/06/05 04:45:04;;;;;;;7.88;3.95;;;9.80;99.90;;;;;;5006464;28;20128;-75
2023/06/05 04:47:31;;;;;;;10.73;4.28;;;9.80;99.90;;;;;;5032561;28;20033;-76
2023/06/05 04:50:04;;;;;;;7.68;3.90;;;9.90;99.90;;;;;;5022632;28;20495;-74
2023/06/05 04:52:35;;;;;;;8.15;4.20;;;9.90;99.90;;;;;;5026671;28;20115;-76
2023/06/05 04:55:02;;;;;;;10.00;4.03;;;10.00;99.90;;;;;;5007740;28;20468;-74
2023/06/05 04:57:29;;;;;;;8.35;3.60;;;10.10;99.90;;;;;;5011969;28;20039;-75
2023/06/05 04:59:56;;;;;;;8.35;4.10;;;10.20;99.90;;;;;;5023379;28;20025;-75
2023/06/05 05:02:23;;;;;;;11.43;4.30;;;10.20;99.90;;;;;;5024873;28;20465;-74
2023/06/05 05:04:48;;;;;;;10.70;4.35;;;10.30;99.90;;;;;;5021374;28;20144;-76
2023/06/05 05:07:16;;;;;;;7.68;4.25;;;10.30;99.90;;;;;;5026385;28;20093;-74
2023/06/05 05:09:45;;;;;;;7.43;4.20;;;10.30;99.90;;;;;;5024057;28;20025;-74
2023/06/05 05:12:11;;;;;;;10.15;4.60;;;10.30;99.90;;;;;;5036547;28;20040;-76
2023/06/05 05:14:37;;;;;;;9.07;4.05;;;10.40;99.90;;;;;;5014316;28;20409;-75
2023/06/05 05:17:03;;;;;;;9.10;4.15;;;10.50;99.90;;;;;;5031853;28;20094;-75
2023/06/05 05:19:29;;;;;;;6.22;3.97;;;10.50;99.90;;;;;;5014948;28;20041;-75
2023/06/05 05:21:55;;;;;;;8.75;3.65;;;10.70;99.90;;;;;;5015241;28;20492;-75
2023/06/05 05:24:21;;;;;;;5.72;3.42;;;10.70;99.90;;;;;;5021304;28;20057;-75
2023/06/05 05:26:46;;;;;;;6.53;3.50;;;10.90;99.90;;;;;;5025081;28;20040;-75
2023/06/05 05:29:12;;;;;;;11.02;3.90;;;11.00;99.90;;;;;;5026889;28;20044;-75
2023/06/05 05:31:38;;;;;;;9.90;3.75;;;11.10;99.90;;;;;;5019492;28;20094;-75
2023/06/05 05:34:04;;;;;;;8.85;3.70;;;11.20;99.90;;;;;;5008756;28;20201;-75
2023/06/05 05:36:29;;;;;;;7.53;3.60;;;11.20;99.90;;;;;;5003404;28;20037;-75
2023/06/05 05:38:55;;;;;;;5.45;3.30;;;11.30;99.90;;;;;;5034208;28;20464;-75
2023/06/05 05:41:21;;;;;;;5.88;4.10;;;11.30;99.90;;;;;;5033995;28;20032;-75
2023/06/05 05:43:47;;;;;;;7.43;3.30;;;11.40;99.90;;;;;;5021519;28;20584;-75
2023/06/05 05:46:13;;;;;;;7.07;3.70;;;11.50;99.90;;;;;;5022408;28;20053;-74
2023/06/05 05:48:39;;;;;;;12.05;3.53;;;11.50;99.90;;;;;;5021633;28;20021;-74
2023/06/05 05:51:06;;;;;;;4.40;3.00;;;11.60;99.90;;;;;;5025165;28;20028;-74
2023/06/05 05:53:32;;;;;;;8.02;3.28;;;11.60;99.90;;;;;;5006360;28;20108;-74
2023/06/05 05:55:58;;;;;;;4.78;2.95;;;11.80;99.90;;;;;;5030866;28;20140;-74
2023/06/05 05:58:24;;;;;;;7.68;3.30;;;11.80;99.90;;;;;;5012295;28;20480;-75
2023/06/05 06:00:50;;;;;;;6.65;3.22;;;11.90;99.90;;;;;;5028112;28;20029;-74
2023/06/05 06:03:19;;;;;;;5.90;3.15;;;12.00;99.90;;;;;;5019819;28;20549;-75
2023/06/05 06:05:45;;;;;;;153.52;80.60;;;12.00;99.90;;;;;;5003846;28;20029;-74
2023/06/05 06:08:11;;;;;;;15.35;8.50;;;12.00;99.90;;;;;;5027177;28;20029;-74
2023/06/05 06:10:37;;;;;;;5.38;2.92;;;12.10;99.90;;;;;;5009618;28;20096;-75
2023/06/05 06:13:04;;;;;;;4.70;2.60;;;12.10;99.90;;;;;;5027377;28;20033;-74
2023/06/05 06:15:30;;;;;;;7.22;3.08;;;12.10;99.90;;;;;;5027495;28;20116;-75
2023/06/05 06:17:56;;;;;;;5.57;2.80;;;12.30;99.90;;;;;;5013972;28;20052;-74
2023/06/05 06:20:22;;;;;;;5.25;3.10;;;12.30;99.90;;;;;;5020403;28;20021;-75
2023/06/05 06:22:48;;;;;;;4.05;2.88;;;12.40;99.90;;;;;;5004942;28;20051;-75
2023/06/05 06:25:15;;;;;;;12.30;6.00;;;12.50;99.90;;;;;;5020576;28;20026;-75
2023/06/05 06:27:43;;;;;;;6.95;2.75;;;12.60;99.90;;;;;;5026677;28;20112;-75
2023/06/05 06:30:10;;;;;;;5.53;2.70;;;12.70;99.90;;;;;;5017101;28;20098;-75
2023/06/05 06:32:35;;;;;;;6.35;3.05;;;12.70;99.90;;;;;;5028231;28;20043;-74
2023/06/05 06:35:01;;;;;;;5.30;2.80;;;12.70;99.90;;;;;;5025027;28;20021;-75
2023/06/05 06:37:28;;;;;;;8.00;2.60;;;12.80;99.90;;;;;;5012241;28;20033;-74
2023/06/05 06:39:53;;;;;;;11.43;5.60;;;12.80;99.90;;;;;;5026223;28;20021;-75
2023/06/05 06:42:19;;;;;;;6.30;3.30;;;12.80;99.90;;;;;;5009021;28;20041;-75
2023/06/05 06:44:45;;;;;;;4.93;3.10;;;12.80;99.90;;;;;;5021626;28;20634;-75
2023/06/05 06:47:11;;;;;;;7.30;3.42;;;13.00;99.90;;;;;;5029617;28;20107;-75
2023/06/05 06:49:37;;;;;;;4.93;2.80;;;13.00;99.90;;;;;;5025173;28;20040;-75
2023/06/05 06:52:02;;;;;;;5.00;2.60;;;13.20;99.90;;;;;;5025636;28;20038;-75
2023/06/05 06:54:28;;;;;;;5.43;2.72;;;13.10;99.90;;;;;;5018166;28;20033;-75
2023/06/05 06:56:59;;;;;;;5.97;3.05;;;13.20;99.90;;;;;;4999834;28;20029;-75
2023/06/05 06:59:24;;;;;;;4.07;2.30;;;13.20;99.90;;;;;;5019941;28;20512;-75
2023/06/05 07:02:13;;;;;;;9.27;3.42;;;13.30;99.90;;;;;;5022652;28;20080;-75
2023/06/05 07:04:43;;;;;;;6.07;2.33;;;13.40;99.90;;;;;;5031007;28;20048;-75
2023/06/05 07:07:11;;;;;;;5.50;3.08;;;13.30;99.90;;;;;;5032764;28;20026;-75
2023/06/05 07:09:37;;;;;;;3.90;2.60;;;13.40;99.90;;;;;;5005402;28;20054;-75
2023/06/05 07:12:05;;;;;;;12.18;3.13;;;13.50;99.90;;;;;;5025525;28;20079;-74
2023/06/05 07:14:33;;;;;;;4.78;2.70;;;13.60;99.90;;;;;;5022045;28;20547;-76
2023/06/05 07:17:00;;;;;;;5.45;2.53;;;13.70;99.90;;;;;;5006484;28;20033;-75
2023/06/05 07:19:30;;;;;;;6.00;2.85;;;13.90;99.90;;;;;;5032146;28;20079;-75
2023/06/05 07:21:57;;;;;;;4.75;2.88;;;14.00;99.90;;;;;;5005802;28;20807;-75
2023/06/05 07:24:26;;;;;;;6.00;2.70;;;14.10;99.90;;;;;;5022596;28;20072;-75
2023/06/05 07:26:57;;;;;;;6.05;2.72;;;14.20;99.90;;;;;;5023948;28;20026;-76
2023/06/05 07:29:24;;;;;;;4.43;2.63;;;14.70;99.90;;;;;;5024042;28;20419;-76
2023/06/05 07:31:51;;;;;;;4.30;2.40;;;16.50;99.10;;;;;;5039065;28;20619;-76
2023/06/05 07:34:18;;;;;;;4.65;2.38;;;18.10;95.60;;;;;;5036107;28;20029;-77
2023/06/05 07:36:45;;;;;;;5.68;2.10;;;19.10;91.30;;;;;;5040755;28;20048;-76
2023/06/05 07:39:11;;;;;;;4.97;2.20;;;20.80;86.40;;;;;;5033719;28;20021;-77
2023/06/05 07:41:37;;;;;;;4.05;1.83;;;21.20;82.00;;;;;;5013850;28;20037;-76
2023/06/05 07:44:03;;;;;;;6.07;1.90;;;22.30;76.20;;;;;;5011491;28;20025;-75
2023/06/05 07:46:29;;;;;;;5.65;2.08;;;22.60;70.00;;;;;;5008904;28;20450;-77
2023/06/05 07:48:55;;;;;;;5.32;1.75;;;22.50;69.70;;;;;;5013158;28;20465;-77
2023/06/05 07:51:20;;;;;;;2.70;1.60;;;24.30;66.00;;;;;;5011058;28;20017;-76
2023/06/05 07:53:46;;;;;;;3.00;1.65;;;25.10;58.10;;;;;;5036873;28;20547;-77
2023/06/05 07:56:11;;;;;;;7.50;1.77;;;25.30;55.60;;;;;;5019866;28;20556;-77
2023/06/05 07:58:39;;;;;;;3.17;1.83;;;26.70;51.60;;;;;;4999030;28;20088;-77
2023/06/05 08:01:06;;;;;;;3.55;1.52;;;27.60;46.80;;;;;;5008969;28;20040;-76
2023/06/05 08:03:32;;;;;;;3.35;1.30;;;29.40;43.20;;;;;;4998694;28;20460;-76
2023/06/05 08:05:58;;;;;;;2.70;1.42;;;29.40;42.90;;;;;;5009736;28;20025;-76
2023/06/05 08:08:24;;;;;;;5.25;1.83;;;29.80;42.90;;;;;;5023259;28;20354;-76
2023/06/05 08:10:50;;;;;;;3.42;1.55;;;29.50;39.10;;;;;;5017827;28;20025;-77
2023/06/05 08:13:16;;;;;;;3.65;1.60;;;30.50;38.00;;;;;;5027672;28;20041;-77
2023/06/05 08:15:42;;;;;;;6.88;1.70;;;29.90;39.10;;;;;;5020815;28;20080;-77
2023/06/05 08:18:08;;;;;;;4.40;1.60;;;31.20;39.50;;;;;;5010170;28;20056;-77
2023/06/05 08:20:34;;;;;;;4.50;1.40;;;31.90;37.00;;;;;;5017984;28;20145;-77
2023/06/05 08:23:00;;;;;;;5.25;1.58;;;32.50;35.90;;;;;;5008536;28;20959;-78
2023/06/05 08:25:26;;;;;;;5.15;1.77;;;32.20;33.50;;;;;;5017025;28;20025;-76
2023/06/05 08:27:52;;;;;;;4.72;1.52;;;30.70;34.40;;;;;;5018576;28;20025;-77
2023/06/05 08:30:18;;;;;;;4.65;1.60;;;30.50;33.80;;;;;;5006795;28;20030;-77
2023/06/05 08:32:44;;;;;;;3.78;1.58;;;30.30;36.60;;;;;;5022273;28;20049;-77
2023/06/05 08:35:12;;;;;;;3.47;1.60;;;29.30;37.30;;;;;;5022622;28;20025;-77
2023/06/05 08:37:37;;;;;;;2.67;1.63;;;30.10;35.10;;;;;;5022875;28;20021;-77
2023/06/05 08:40:06;;;;;;;2.45;1.65;;;29.80;37.20;;;;;;5027939;28;20040;-77
2023/06/05 08:42:32;;;;;;;3.08;1.60;;;29.80;34.80;;;;;;5015729;28;20055;-77
2023/06/05 08:44:58;;;;;;;3.78;1.50;;;30.40;35.80;;;;;;5003002;28;20060;-75
2023/06/05 08:47:28;;;;;;;4.18;1.63;;;30.50;34.80;;;;;;5025604;28;20041;-75
2023/06/05 08:49:55;;;;;;;2.42;1.38;;;32.50;33.40;;;;;;5024582;28;20113;-76
2023/06/05 08:52:29;;;;;;;3.33;1.55;;;33.70;33.20;;;;;;5034146;28;20025;-75
2023/06/05 08:54:58;;;;;;;3.13;1.40;;;33.40;31.10;;;;;;5030965;28;20021;-76
2023/06/05 08:57:24;;;;;;;3.55;1.48;;;33.30;31.40;;;;;;5012797;28;20529;-77
2023/06/05 08:59:50;;;;;;;3.25;1.40;;;33.00;32.00;;;;;;5023884;28;20048;-76
2023/06/05 09:02:16;;;;;;;3.97;1.58;;;31.60;33.00;;;;;;5024217;28;20083;-76
2023/06/05 09:04:41;;;;;;;4.05;1.77;;;30.20;32.10;;;;;;5003597;28;20030;-76
2023/06/05 09:07:07;;;;;;;4.05;1.58;;;29.00;34.60;;;;;;5003209;28;20056;-76
2023/06/05 09:09:33;;;;;;;4.78;1.73;;;30.60;36.30;;;;;;5021943;28;20138;-77
2023/06/05 09:12:07;;;;;;;2.70;1.73;;;30.80;32.50;;;;;;5004498;28;20392;-76
2023/06/05 09:14:33;;;;;;;3.72;1.65;;;30.90;32.10;;;;;;5014665;28;20128;-76
2023/06/05 09:17:00;;;;;;;2.95;1.58;;;31.80;33.00;;;;;;5015596;28;20033;-76
2023/06/05 09:19:47;;;;;;;2.92;1.60;;;33.00;32.20;;;;;;5023925;28;20026;-78
2023/06/05 09:22:14;;;;;;;3.42;1.50;;;33.40;32.10;;;;;;5007181;28;20047;-77
2023/06/05 09:24:40;;;;;;;2.60;1.33;;;34.80;30.40;;;;;;5025809;28;20559;-77
2023/06/05 09:27:08;;;;;;;6.85;1.70;;;34.70;29.70;;;;;;5012862;28;20043;-76
2023/06/05 09:29:38;;;;;;;4.78;1.73;;;34.90;29.70;;;;;;5032320;28;20044;-78
2023/06/05 09:32:23;;;;;;;3.77;1.60;;;34.40;29.80;;;;;;5004845;28;20040;-77
2023/06/05 09:35:00;;;;;;;3.83;1.73;;;32.90;31.00;;;;;;5013947;28;20120;-76
2023/06/05 09:37:35;;;;;;;2.78;1.52;;;31.70;32.80;;;;;;5017790;28;20048;-76
2023/06/05 09:40:01;;;;;;;3.80;1.73;;;32.50;32.60;;;;;;5028077;28;20184;-77
2023/06/05 09:42:33;;;;;;;3.22;1.58;;;31.00;34.00;;;;;;5009625;28;20041;-77
2023/06/05 09:45:00;;;;;;;4.35;1.80;;;31.10;31.90;;;;;;5026858;28;20045;-76
2023/06/05 09:47:25;;;;;;;2.47;1.50;;;32.70;32.60;;;;;;5026494;28;20025;-77
2023/06/05 09:49:51;;;;;;;3.42;1.70;;;33.80;32.00;;;;;;5007949;28;20032;-77
2023/06/05 09:52:16;;;;;;;5.03;1.45;;;33.40;30.60;;;;;;5013807;28;20156;-77
2023/06/05 09:54:47;;;;;;;4.25;1.60;;;33.10;30.60;;;;;;5029319;28;20124;-77
2023/06/05 09:57:14;;;;;;;3.17;1.50;;;33.00;32.20;;;;;;5013560;28;20026;-77
2023/06/05 09:59:53;;;;;;;6.63;1.70;;;33.40;31.70;;;;;;5011730;28;20033;-77
2023/06/05 10:02:32;;;;;;;4.32;1.50;;;33.40;31.80;;;;;;5025185;28;20033;-77
2023/06/05 10:05:08;;;;;;;2.72;1.63;;;34.70;33.70;;;;;;5016926;28;20037;-76
2023/06/05 10:07:37;;;;;;;3.10;1.30;;;33.90;29.50;;;;;;5027916;28;20037;-76
2023/06/05 10:10:15;;;;;;;3.37;1.57;;;33.10;30.60;;;;;;4419167;28;10000971;-79
2023/06/05 10:12:42;;;;;;;2.20;1.40;;;33.70;32.20;;;;;;5018855;28;20528;-77
2023/06/05 10:15:09;;;;;;;3.67;1.75;;;33.30;29.70;;;;;;5028617;28;20036;-79
2023/06/05 10:17:38;;;;;;;3.72;1.67;;;32.50;30.00;;;;;;5003297;28;20611;-78
2023/06/05 10:20:07;;;;;;;2.55;1.58;;;33.00;29.60;;;;;;5015820;28;20151;-77
2023/06/05 10:22:35;;;;;;;2.40;1.50;;;34.00;30.70;;;;;;5010782;28;20048;-78
2023/06/05 10:25:06;;;;;;;3.15;1.60;;;33.00;30.20;;;;;;5003581;28;20044;-78
2023/06/05 10:27:40;;;;;;;1.95;1.30;;;33.80;35.10;;;;;;5017301;28;20132;-78
2023/06/05 10:30:18;;;;;;;3.08;1.42;;;34.90;30.80;;;;;;5014971;28;20036;-77
2023/06/05 10:32:59;;;;;;;2.30;1.25;;;35.60;30.00;;;;;;5018236;28;20115;-77
2023/06/05 10:36:00;;;;;;;3.78;1.63;;;35.50;32.70;;;;;;5000156;28;20137;-78
2023/06/05 10:38:27;;;;;;;4.75;1.70;;;35.20;31.40;;;;;;5021643;28;20021;-78
2023/06/05 10:40:58;;;;;;;6.43;1.48;;;35.40;28.90;;;;;;5006139;28;20545;-78
2023/06/05 10:43:35;;;;;;;2.63;1.63;;;35.20;28.90;;;;;;5001150;28;20033;-76
2023/06/05 10:46:27;;;;;;;4.22;1.75;;;34.20;32.10;;;;;;5029562;28;20041;-78
2023/06/05 10:49:08;;;;;;;4.15;1.52;;;33.50;33.00;;;;;;4664106;28;10000303;-79
2023/06/05 10:51:45;;;;;;;3.50;1.90;;;33.80;29.90;;;;;;5026672;28;20095;-79
2023/06/05 10:54:16;;;;;;;1.92;1.25;;;33.30;30.80;;;;;;5018013;28;20024;-79
2023/06/05 10:56:55;;;;;;;3.40;1.50;;;34.50;31.40;;;;;;5011925;28;20644;-79
2023/06/05 10:59:24;;;;;;;3.55;2.00;;;35.40;28.90;;;;;;5024372;28;20030;-79
2023/06/05 11:02:12;;;;;;;3.78;1.65;;;34.20;31.60;;;;;;5009785;28;20135;-78
2023/06/05 11:04:46;;;;;;;4.30;1.35;;;33.50;29.50;;;;;;5000635;28;20061;-79
2023/06/05 11:07:24;;;;;;;3.70;1.67;;;33.20;32.10;;;;;;5006609;28;20555;-79
2023/06/05 11:10:02;;;;;;;4.53;1.77;;;33.80;33.50;;;;;;5036482;28;20059;-79
2023/06/05 11:12:50;;;;;;;3.22;1.52;;;33.60;29.40;;;;;;5012577;28;20040;-78
2023/06/05 11:15:33;;;;;;;4.45;1.70;;;34.10;33.40;;;;;;5005963;28;20025;-78
2023/06/05 11:18:28;;;;;;;2.72;1.38;;;33.20;30.20;;;;;;5026859;28;20945;-78
2023/06/05 11:20:55;;;;;;;3.45;1.65;;;32.50;31.10;;;;;;5011603;28;20035;-79
2023/06/05 11:23:21;;;;;;;2.95;1.75;;;32.40;31.20;;;;;;5006885;28;20528;-79
2023/06/05 11:25:50;;;;;;;4.80;1.33;;;31.10;34.80;;;;;;5033290;28;20028;-79
2023/06/05 11:28:39;;;;;;;5.20;1.65;;;28.80;35.90;;;;;;5038697;28;20251;-79
2023/06/05 11:31:05;;;;;;;6.50;2.25;;;27.60;40.10;;;;;;5033989;28;20536;-79
2023/06/05 11:33:31;;;;;;;2.88;1.90;;;26.30;40.70;;;;;;5013367;28;20029;-79
2023/06/05 11:36:01;;;;;;;3.20;1.80;;;25.70;42.90;;;;;;5013994;28;20123;-79
2023/06/05 11:38:27;;;;;;;4.33;1.77;;;24.70;44.90;;;;;;5038885;28;20029;-78
2023/06/05 11:40:53;;;;;;;3.00;1.67;;;24.60;45.90;;;;;;5025898;28;20032;-79
2023/06/05 11:43:20;;;;;;;5.03;1.70;;;24.00;47.60;;;;;;5023193;28;20045;-79
2023/06/05 11:45:57;;;;;;;3.42;1.85;;;24.20;50.00;;;;;;5015724;28;20033;-80
2023/06/05 11:48:24;;;;;;;4.45;1.70;;;24.50;52.50;;;;;;5031956;28;20116;-77
2023/06/05 11:51:00;;;;;;;4.78;1.40;;;24.70;49.20;;;;;;5022624;28;20083;-77
2023/06/05 11:53:27;;;;;;;2.83;1.55;;;24.70;54.20;;;;;;5023542;28;20096;-78
2023/06/05 11:56:04;;;;;;;2.72;1.88;;;24.30;52.10;;;;;;5001849;28;20960;-78
2023/06/05 11:58:37;;;;;;;3.05;1.60;;;24.20;52.70;;;;;;5022546;28;20087;-77
2023/06/05 12:01:07;;;;;;;3.80;1.67;;;24.30;56.10;;;;;;5004401;28;20032;-77
2023/06/05 12:03:33;;;;;;;5.63;2.00;;;24.20;51.40;;;;;;5008179;28;20083;-78
2023/06/05 12:06:02;;;;;;;2.70;1.70;;;24.50;63.00;;;;;;5028366;28;20469;-77
2023/06/05 12:08:32;;;;;;;4.00;1.58;;;24.30;50.60;;;;;;5005460;28;20568;-77
2023/06/05 12:10:58;;;;;;;5.28;1.90;;;24.20;59.60;;;;;;5014911;28;20037;-77
2023/06/05 12:13:53;;;;;;;4.18;1.73;;;24.00;55.30;;;;;;5023957;28;20106;-77
2023/06/05 12:16:29;;;;;;;4.97;1.98;;;24.70;57.80;;;;;;5036158;28;20143;-77
2023/06/05 12:18:55;;;;;;;3.45;1.65;;;24.80;59.50;;;;;;5043444;28;20247;-77
2023/06/05 12:21:22;;;;;;;4.53;1.80;;;24.60;58.50;;;;;;5021773;28;20030;-77
2023/06/05 12:23:49;;;;;;;2.15;1.45;;;24.10;52.60;;;;;;5022174;28;20029;-77
2023/06/05 12:26:15;;;;;;;5.20;1.85;;;24.40;55.20;;;;;;5007630;28;20057;-78
2023/06/05 12:28:42;;;;;;;3.45;1.45;;;23.80;56.60;;;;;;5019626;28;20047;-78
2023/06/05 12:31:07;;;;;;;3.38;1.75;;;24.00;59.00;;;;;;5033846;28;20021;-77
2023/06/05 12:33:49;;;;;;;4.13;1.90;;;23.80;56.90;;;;;;5013004;28;20044;-77
2023/06/05 12:36:16;;;;;;;3.58;1.70;;;24.40;64.70;;;;;;5013015;28;20124;-77
2023/06/05 12:38:42;;;;;;;7.47;1.90;;;24.30;54.30;;;;;;5010395;28;20667;-77
2023/06/05 12:41:08;;;;;;;2.83;1.63;;;23.70;58.80;;;;;;5006792;28;20029;-77
2023/06/05 12:43:34;;;;;;;2.88;1.92;;;23.00;61.70;;;;;;5027538;28;20131;-76
2023/06/05 12:46:00;;;;;;;2.20;1.60;;;23.30;68.00;;;;;;5012595;28;20131;-77
2023/06/05 12:48:26;;;;;;;4.28;1.88;;;23.50;60.60;;;;;;5001385;28;20575;-78
2023/06/05 12:50:53;;;;;;;3.20;1.70;;;23.70;59.70;;;;;;5021126;28;20209;-77
2023/06/05 12:53:19;;;;;;;5.00;1.95;;;24.20;62.30;;;;;;5006008;28;20029;-78
2023/06/05 12:55:45;;;;;;;3.40;1.60;;;24.80;67.60;;;;;;5024922;28;20040;-77
2023/06/05 12:58:10;;;;;;;3.70;1.60;;;24.80;61.50;;;;;;5009384;28;20044;-77